KMTW/MTW METAR and TAF weather

Enter ICAO airport designator
Station Type Date Time Source
KMTW METAR 2021/07/28 19:56 UTC NOAA

KMTW 281956Z AUTO 14008KT 10SM CLR 26/19 A3001 RMK AO2 SLP159 T02560189 PNO $


Station Type Date Time Source
KMTW Decoded METAR 2021/07/28 19:56 UTC NOAA

Manitowoc, Manitowoc County Airport, WI, United States (KMTW) 44-08N 087-41W
Jul 28, 2021 - 03:56 PM EDT / 2021.07.28 1956 UTC
Wind: from the SE (140 degrees) at 9 MPH (8 KT):0
Visibility: 10 mile(s):0
Sky conditions: clear
Temperature: 78.1 F (25.6 C)
Dew Point: 66.0 F (18.9 C)
Relative Humidity: 66%
Pressure (altimeter): 30.01 in. Hg (1016 hPa)
ob: KMTW 281956Z AUTO 14008KT 10SM CLR 26/19 A3001 RMK AO2 SLP159 T02560189 PNO
cycle: 20

Station Type Date Time Source
KMTW TAF 2021/07/28 18:30 UTC NOAA

TAF KMTW 281729Z 2818/2918 15007KT P6SM BKN200
FM290400 13009KT 5SM -SHRA BR SCT025 OVC050
TEMPO 2904/2907 33035G50KT 1SM +TSRA SCT012 BKN025CB
FM290900 VRB04KT 5SM BR BKN015
TEMPO 2909/2912 2SM BR SCT005
FM291200 35008KT 6SM BR BKN020
FM291500 35011G18KT P6SM BKN040

Example: see airport list